Time;durP1;ratioP1;P1;durP2;ratioP2;P2;SDS_P1;SDS_P2;PMS_P1;PMS_P2;Temp;Humidity;BMP_temperature;BMP_pressure;BME280_temperature;BME280_humidity;BME280_pressure;Samples;Min_cycle;Max_cycle;Signal;HPM_P1;HPM_P2
2021/05/09 00:00:13;;;;;;;0.67;0.67;;;9.10;68.70;;;;;;5102196;28;20661;-70
2021/05/09 00:02:40;;;;;;;0.53;0.53;;;9.10;68.60;;;;;;5099268;28;20229;-70
2021/05/09 00:05:07;;;;;;;0.90;0.90;;;9.10;68.80;;;;;;5099207;28;20213;-70
2021/05/09 00:07:33;;;;;;;0.57;0.57;;;9.00;69.00;;;;;;5097173;28;20179;-70
2021/05/09 00:09:59;;;;;;;1.80;0.67;;;9.00;69.00;;;;;;5104471;28;20235;-70
2021/05/09 00:12:25;;;;;;;0.50;0.50;;;9.00;69.40;;;;;;5101889;28;20182;-70
2021/05/09 00:14:50;;;;;;;0.70;0.70;;;9.00;69.20;;;;;;5083081;28;20709;-69
2021/05/09 00:17:17;;;;;;;0.70;0.70;;;8.90;69.40;;;;;;5100580;28;20186;-70
2021/05/09 00:19:43;;;;;;;0.70;0.70;;;8.90;69.40;;;;;;5101093;28;20216;-70
2021/05/09 00:22:09;;;;;;;0.53;0.53;;;8.80;69.50;;;;;;5103370;28;20177;-70
2021/05/09 00:24:35;;;;;;;3.30;0.80;;;8.70;69.80;;;;;;5101313;28;20209;-70
2021/05/09 00:27:01;;;;;;;0.63;0.50;;;8.70;69.70;;;;;;5104541;28;20182;-70
2021/05/09 00:29:27;;;;;;;0.77;0.77;;;8.70;69.80;;;;;;5100569;28;20218;-71
2021/05/09 00:31:52;;;;;;;0.40;0.40;;;8.70;69.80;;;;;;5100423;28;20258;-70
2021/05/09 00:34:18;;;;;;;0.60;0.60;;;8.70;70.00;;;;;;5101400;28;20189;-70
2021/05/09 00:36:44;;;;;;;2.40;0.70;;;8.60;70.50;;;;;;5100345;28;20239;-70
2021/05/09 00:39:09;;;;;;;0.60;0.60;;;8.60;70.30;;;;;;5100545;28;20647;-70
2021/05/09 00:41:35;;;;;;;0.47;0.47;;;8.60;70.40;;;;;;5100926;28;20665;-71
2021/05/09 00:44:01;;;;;;;0.70;0.70;;;8.60;70.40;;;;;;5102489;28;20288;-70
2021/05/09 00:46:27;;;;;;;0.57;0.57;;;8.60;70.40;;;;;;5100450;28;20273;-70
2021/05/09 00:48:54;;;;;;;0.50;0.50;;;8.50;70.80;;;;;;5080372;28;20185;-70
2021/05/09 00:51:21;;;;;;;0.67;0.60;;;8.50;71.10;;;;;;5099595;28;20622;-71
2021/05/09 00:53:47;;;;;;;1.03;0.67;;;8.40;71.20;;;;;;5100030;28;20181;-70
2021/05/09 00:56:16;;;;;;;0.63;0.60;;;8.40;71.70;;;;;;5100609;28;20179;-69
2021/05/09 00:58:43;;;;;;;0.60;0.60;;;8.30;72.00;;;;;;5107394;28;20186;-70
2021/05/09 01:01:11;;;;;;;0.50;0.50;;;8.30;71.70;;;;;;5106054;28;20205;-70
2021/05/09 01:03:38;;;;;;;0.93;0.70;;;8.30;72.30;;;;;;5103364;28;20660;-68
2021/05/09 01:06:06;;;;;;;0.60;0.60;;;8.30;72.20;;;;;;5103715;28;20269;-69
2021/05/09 01:08:34;;;;;;;0.70;0.70;;;8.30;72.10;;;;;;5103205;28;20291;-72
2021/05/09 01:11:00;;;;;;;0.60;0.60;;;8.30;72.20;;;;;;5104921;28;20178;-69
2021/05/09 01:13:25;;;;;;;0.50;0.50;;;8.30;72.00;;;;;;5104146;28;20192;-70
2021/05/09 01:15:51;;;;;;;2.03;0.47;;;8.20;72.60;;;;;;5106368;28;20555;-71
2021/05/09 01:18:17;;;;;;;0.40;0.40;;;8.20;72.60;;;;;;5107878;28;20190;-70
2021/05/09 01:20:43;;;;;;;0.80;0.73;;;8.20;72.70;;;;;;5106295;28;20288;-70
2021/05/09 01:23:09;;;;;;;0.53;0.53;;;8.20;73.10;;;;;;5104825;28;20322;-71
2021/05/09 01:25:35;;;;;;;0.43;0.40;;;8.20;73.50;;;;;;5105747;28;20682;-71
2021/05/09 01:28:01;;;;;;;0.80;0.80;;;8.20;73.60;;;;;;5106338;28;20193;-70
2021/05/09 01:30:27;;;;;;;0.80;0.80;;;8.20;74.10;;;;;;5103163;28;20533;-71
2021/05/09 01:32:53;;;;;;;0.57;0.57;;;8.20;74.20;;;;;;5107098;28;20190;-71
2021/05/09 01:35:19;;;;;;;0.50;0.50;;;8.20;74.10;;;;;;5084058;28;20198;-71
2021/05/09 01:37:45;;;;;;;1.70;0.60;;;8.10;74.30;;;;;;5106369;28;20189;-71
2021/05/09 01:40:12;;;;;;;2.27;0.80;;;8.10;74.60;;;;;;5105262;28;20177;-71
2021/05/09 01:42:38;;;;;;;0.77;0.50;;;8.00;75.30;;;;;;5105041;28;20181;-70
2021/05/09 01:45:05;;;;;;;0.57;0.57;;;8.00;75.00;;;;;;5105235;28;20341;-70
2021/05/09 01:47:31;;;;;;;2.13;0.80;;;8.00;75.10;;;;;;5106272;28;20200;-70
2021/05/09 01:49:57;;;;;;;0.60;0.60;;;8.00;75.00;;;;;;5103898;28;20189;-70
2021/05/09 01:52:23;;;;;;;0.60;0.60;;;7.90;75.40;;;;;;5104507;28;20174;-71
2021/05/09 01:54:48;;;;;;;0.80;0.80;;;7.90;75.20;;;;;;5103445;28;20680;-70
2021/05/09 01:57:14;;;;;;;0.67;0.67;;;7.90;75.00;;;;;;5106259;28;20174;-70
2021/05/09 01:59:40;;;;;;;0.63;0.63;;;7.90;74.70;;;;;;5102682;28;20185;-70
2021/05/09 02:02:06;;;;;;;0.53;0.53;;;7.80;74.70;;;;;;5104884;28;20188;-70
2021/05/09 02:04:32;;;;;;;0.73;0.73;;;7.80;74.80;;;;;;5084309;28;20298;-71
2021/05/09 02:06:57;;;;;;;0.50;0.50;;;7.80;74.90;;;;;;5099734;28;20190;-71
2021/05/09 02:09:23;;;;;;;0.67;0.67;;;7.70;74.60;;;;;;5105993;28;20272;-71
2021/05/09 02:11:49;;;;;;;0.87;0.60;;;7.70;74.70;;;;;;5103574;28;20181;-71
2021/05/09 02:14:14;;;;;;;0.70;0.70;;;7.70;74.40;;;;;;5104760;28;20689;-71
2021/05/09 02:16:40;;;;;;;0.50;0.50;;;7.60;75.10;;;;;;5103329;28;20705;-70
2021/05/09 02:19:06;;;;;;;0.60;0.60;;;7.60;75.40;;;;;;5102638;28;20193;-71
2021/05/09 02:21:32;;;;;;;0.60;0.60;;;7.50;75.40;;;;;;5104320;28;20547;-71
2021/05/09 02:23:58;;;;;;;0.50;0.50;;;7.50;75.40;;;;;;5102644;28;20217;-70
2021/05/09 02:26:24;;;;;;;0.70;0.70;;;7.50;75.40;;;;;;5107105;28;20189;-71
2021/05/09 02:28:49;;;;;;;0.77;0.77;;;7.50;76.00;;;;;;5101152;28;20187;-71
2021/05/09 02:31:15;;;;;;;0.53;0.53;;;7.40;76.00;;;;;;5107050;28;20178;-70
2021/05/09 02:33:41;;;;;;;0.93;0.93;;;7.40;75.80;;;;;;5082583;28;20688;-70
2021/05/09 02:36:06;;;;;;;0.83;0.80;;;7.40;75.90;;;;;;5105930;28;20188;-70
2021/05/09 02:38:32;;;;;;;1.13;0.43;;;7.40;76.00;;;;;;5103015;28;20181;-70
2021/05/09 02:41:03;;;;;;;0.70;0.70;;;7.30;75.80;;;;;;5103468;28;20174;-71
2021/05/09 02:43:29;;;;;;;0.50;0.50;;;7.30;76.20;;;;;;5098878;28;20178;-71
2021/05/09 02:45:55;;;;;;;0.70;0.70;;;7.30;76.30;;;;;;5105412;28;20690;-71
2021/05/09 02:48:20;;;;;;;0.87;0.87;;;7.30;76.80;;;;;;5104405;28;20281;-70
2021/05/09 02:50:46;;;;;;;0.70;0.70;;;7.20;77.20;;;;;;5100196;28;20182;-71
2021/05/09 02:53:12;;;;;;;0.60;0.60;;;7.20;77.50;;;;;;5099835;28;20193;-71
2021/05/09 02:55:38;;;;;;;0.47;0.47;;;7.20;78.60;;;;;;5102667;28;20181;-71
2021/05/09 02:58:03;;;;;;;0.47;0.47;;;7.20;78.50;;;;;;5100937;28;20580;-70
2021/05/09 03:00:29;;;;;;;2.47;0.70;;;7.20;78.50;;;;;;5103335;28;20186;-70
2021/05/09 03:02:55;;;;;;;0.63;0.63;;;7.20;78.80;;;;;;5100432;28;20213;-70
2021/05/09 03:05:22;;;;;;;0.87;0.87;;;7.10;78.50;;;;;;5103457;28;20205;-70
2021/05/09 03:07:48;;;;;;;0.70;0.70;;;7.10;78.60;;;;;;5103369;28;20182;-70
2021/05/09 03:10:13;;;;;;;0.70;0.70;;;7.10;78.70;;;;;;5103380;28;20193;-70
2021/05/09 03:12:39;;;;;;;0.70;0.70;;;7.00;78.70;;;;;;5101623;28;20177;-70
2021/05/09 03:15:05;;;;;;;0.90;0.90;;;7.00;78.80;;;;;;5102692;28;20260;-70
2021/05/09 03:17:32;;;;;;;0.80;0.70;;;7.00;79.00;;;;;;5103457;28;20246;-71
2021/05/09 03:19:58;;;;;;;3.33;1.10;;;7.00;78.90;;;;;;5103526;28;20234;-71
2021/05/09 03:22:24;;;;;;;0.90;0.90;;;7.00;79.10;;;;;;5083626;28;20189;-70
2021/05/09 03:24:50;;;;;;;1.30;1.10;;;6.90;79.20;;;;;;5104289;28;20280;-71
2021/05/09 03:27:15;;;;;;;1.10;1.00;;;6.90;79.30;;;;;;5086281;28;20196;-70
2021/05/09 03:29:41;;;;;;;1.00;1.00;;;6.90;79.60;;;;;;5102087;28;20185;-70
2021/05/09 03:32:07;;;;;;;0.70;0.70;;;6.90;79.60;;;;;;5098675;28;20260;-69
2021/05/09 03:37:17;;;;;;;3.13;0.70;;;6.90;80.20;;;;;;5098307;28;20342;-70
2021/05/09 03:39:42;;;;;;;1.00;1.00;;;6.90;80.30;;;;;;5101761;28;20290;-70
2021/05/09 03:42:11;;;;;;;0.90;0.90;;;6.90;80.30;;;;;;5101696;28;20170;-71
2021/05/09 03:44:37;;;;;;;1.10;1.10;;;6.90;80.20;;;;;;5103188;28;20784;-71
2021/05/09 03:47:05;;;;;;;1.00;1.00;;;6.90;80.00;;;;;;5099578;28;20189;-70
2021/05/09 03:49:31;;;;;;;1.40;1.30;;;6.80;80.00;;;;;;5101195;28;20261;-70
2021/05/09 03:51:57;;;;;;;0.67;0.67;;;6.80;79.80;;;;;;5103296;28;20261;-70
2021/05/09 03:54:25;;;;;;;0.80;0.80;;;6.80;79.70;;;;;;5100697;28;20213;-70
2021/05/09 03:56:51;;;;;;;1.20;0.90;;;6.80;79.90;;;;;;5099532;28;20185;-71
2021/05/09 03:59:17;;;;;;;1.27;1.17;;;6.80;80.10;;;;;;5101618;28;20189;-71
2021/05/09 04:01:43;;;;;;;0.77;0.77;;;6.90;80.00;;;;;;5099617;28;20187;-70
2021/05/09 04:04:11;;;;;;;1.23;1.23;;;6.90;79.80;;;;;;5099705;28;20209;-70
2021/05/09 04:06:37;;;;;;;1.50;1.20;;;6.90;79.60;;;;;;5098485;28;20185;-70
2021/05/09 04:09:05;;;;;;;1.50;1.30;;;6.90;79.60;;;;;;5100478;28;20682;-69
2021/05/09 04:11:31;;;;;;;1.30;1.20;;;6.90;79.80;;;;;;5104043;28;20678;-70
2021/05/09 04:14:00;;;;;;;1.00;1.00;;;7.00;79.40;;;;;;5102212;28;20669;-70
2021/05/09 04:16:26;;;;;;;0.97;0.97;;;7.00;79.10;;;;;;5103413;28;20644;-70
2021/05/09 04:18:52;;;;;;;1.63;1.53;;;7.00;79.00;;;;;;5102230;28;20177;-70
2021/05/09 04:21:17;;;;;;;1.23;0.90;;;7.00;79.00;;;;;;5103540;28;20184;-70
2021/05/09 04:23:43;;;;;;;0.87;0.87;;;7.10;79.00;;;;;;5100733;28;20186;-70
2021/05/09 04:26:09;;;;;;;1.03;1.03;;;7.10;78.90;;;;;;5100596;28;20223;-71
2021/05/09 04:28:34;;;;;;;1.13;1.13;;;7.10;78.90;;;;;;5098218;28;20569;-71
2021/05/09 04:31:00;;;;;;;0.87;0.87;;;7.20;79.10;;;;;;5103666;28;20219;-70
2021/05/09 04:33:27;;;;;;;1.47;1.37;;;7.20;79.70;;;;;;5104249;28;20417;-71
2021/05/09 04:35:53;;;;;;;1.40;1.30;;;7.20;80.10;;;;;;5085494;28;20190;-70
2021/05/09 04:38:19;;;;;;;2.07;1.20;;;7.30;80.50;;;;;;5101183;28;20187;-71
2021/05/09 04:40:45;;;;;;;2.03;1.40;;;7.30;80.60;;;;;;5107070;28;20182;-71
2021/05/09 04:43:15;;;;;;;1.43;1.30;;;7.30;80.50;;;;;;5105490;28;20681;-70
2021/05/09 04:45:40;;;;;;;1.33;1.33;;;7.40;80.20;;;;;;5106796;28;20677;-70
2021/05/09 04:48:06;;;;;;;1.10;1.10;;;7.40;79.70;;;;;;5106911;28;20178;-71
2021/05/09 04:50:33;;;;;;;1.53;1.43;;;7.40;79.50;;;;;;5107180;28;20184;-70
2021/05/09 04:52:59;;;;;;;1.10;1.10;;;7.50;79.40;;;;;;5102727;28;20186;-71
2021/05/09 04:55:25;;;;;;;0.80;0.80;;;7.50;79.60;;;;;;5103935;28;20281;-71
2021/05/09 04:57:51;;;;;;;1.07;1.07;;;7.60;79.70;;;;;;5104204;28;20289;-71
2021/05/09 05:00:17;;;;;;;1.10;1.10;;;7.60;79.80;;;;;;5106804;28;20177;-70
2021/05/09 05:02:43;;;;;;;1.83;1.07;;;7.70;79.70;;;;;;5101594;28;20228;-71
2021/05/09 05:05:09;;;;;;;0.80;0.80;;;7.80;79.50;;;;;;5104200;28;20710;-70
2021/05/09 05:07:35;;;;;;;1.37;1.00;;;7.80;79.40;;;;;;5102930;28;20609;-71
2021/05/09 05:10:01;;;;;;;1.17;1.07;;;7.80;78.90;;;;;;5105530;28;20178;-70
2021/05/09 05:12:26;;;;;;;0.83;0.83;;;7.90;78.60;;;;;;5104097;28;20207;-71
2021/05/09 05:14:52;;;;;;;1.10;1.10;;;7.90;78.30;;;;;;5103504;28;20204;-71
2021/05/09 05:17:36;;;;;;;0.90;0.90;;;8.00;77.20;;;;;;5102474;28;20851;-71
2021/05/09 05:20:02;;;;;;;0.93;0.93;;;8.00;76.50;;;;;;5104187;28;20255;-71
2021/05/09 05:22:28;;;;;;;1.13;0.80;;;8.10;76.10;;;;;;5105516;28;20265;-70
2021/05/09 05:24:53;;;;;;;1.17;1.17;;;8.10;76.10;;;;;;5106927;28;20205;-71
2021/05/09 05:27:19;;;;;;;5.30;1.33;;;8.10;75.90;;;;;;5106777;28;20288;-71
2021/05/09 05:29:45;;;;;;;1.33;1.30;;;8.10;75.20;;;;;;5102079;28;20540;-70
2021/05/09 05:32:10;;;;;;;1.10;1.10;;;8.20;75.10;;;;;;5105855;28;20630;-70
2021/05/09 05:34:36;;;;;;;3.23;1.20;;;8.20;75.40;;;;;;5106311;28;20581;-73
2021/05/09 05:37:02;;;;;;;1.00;1.00;;;8.30;75.30;;;;;;5101362;28;20190;-71
2021/05/09 05:39:27;;;;;;;1.13;1.10;;;8.30;75.30;;;;;;5100643;28;20188;-70
2021/05/09 05:41:56;;;;;;;1.00;1.00;;;8.40;75.10;;;;;;5102537;28;20272;-71
2021/05/09 05:44:21;;;;;;;1.00;1.00;;;8.40;75.10;;;;;;5101825;28;20204;-71
2021/05/09 05:46:47;;;;;;;1.03;1.03;;;8.50;75.00;;;;;;5106238;28;20200;-72
2021/05/09 05:49:13;;;;;;;1.00;1.00;;;8.50;74.70;;;;;;5105518;28;20541;-71
2021/05/09 05:51:39;;;;;;;1.10;1.07;;;8.60;74.10;;;;;;5101507;28;20190;-72
2021/05/09 05:54:05;;;;;;;1.50;1.40;;;8.60;73.90;;;;;;5102565;28;20182;-71
2021/05/09 05:56:30;;;;;;;1.90;1.00;;;8.70;74.10;;;;;;5100493;28;20708;-71
2021/05/09 05:58:56;;;;;;;0.83;0.83;;;8.70;73.30;;;;;;5102676;28;20294;-71
2021/05/09 06:01:22;;;;;;;1.10;0.93;;;8.80;73.50;;;;;;5103011;28;20185;-71
2021/05/09 06:03:49;;;;;;;1.47;1.47;;;8.90;73.40;;;;;;5099959;28;20173;-71
2021/05/09 06:06:16;;;;;;;1.50;1.40;;;8.90;72.60;;;;;;5103765;28;20185;-71
2021/05/09 06:08:42;;;;;;;1.30;1.30;;;9.00;72.50;;;;;;5102833;28;20209;-72
2021/05/09 06:11:08;;;;;;;1.53;1.40;;;9.00;72.60;;;;;;5087130;28;20177;-72
2021/05/09 06:13:34;;;;;;;1.60;1.50;;;9.10;72.80;;;;;;5085123;28;20723;-73
2021/05/09 06:16:01;;;;;;;1.37;1.27;;;9.20;71.90;;;;;;5097264;28;20214;-73
2021/05/09 06:18:26;;;;;;;4.73;1.63;;;9.20;71.70;;;;;;5086405;28;20653;-73
2021/05/09 06:20:54;;;;;;;1.40;1.40;;;9.30;71.70;;;;;;5100198;28;20186;-74
2021/05/09 06:23:23;;;;;;;1.40;1.30;;;9.30;71.80;;;;;;5101429;28;20185;-75
2021/05/09 06:25:49;;;;;;;1.10;1.10;;;9.40;72.40;;;;;;5097457;28;20209;-74
2021/05/09 06:28:15;;;;;;;1.40;1.30;;;9.40;72.40;;;;;;5098728;28;20205;-74
2021/05/09 06:30:43;;;;;;;1.43;1.33;;;9.50;71.70;;;;;;5104866;28;20662;-73
2021/05/09 06:33:09;;;;;;;1.70;1.60;;;9.50;71.60;;;;;;5102369;28;20902;-73
2021/05/09 06:35:38;;;;;;;1.53;1.43;;;9.60;71.30;;;;;;5102580;28;20180;-73
2021/05/09 06:38:04;;;;;;;1.20;1.20;;;9.70;71.40;;;;;;5102428;28;20639;-76
2021/05/09 06:40:32;;;;;;;2.30;1.40;;;9.70;71.40;;;;;;5089812;28;20184;-74
2021/05/09 06:43:00;;;;;;;2.27;1.80;;;9.80;71.50;;;;;;5097324;28;20242;-73
2021/05/09 06:45:28;;;;;;;2.27;2.07;;;9.80;71.20;;;;;;5103696;28;20717;-74
2021/05/09 06:47:55;;;;;;;4.53;1.47;;;9.90;71.10;;;;;;5101952;28;20190;-72
2021/05/09 06:50:21;;;;;;;2.10;1.80;;;10.00;71.20;;;;;;5101667;28;20178;-74
2021/05/09 06:53:06;;;;;;;2.43;1.70;;;10.10;71.00;;;;;;5080436;28;20678;-74
2021/05/09 06:55:33;;;;;;;1.53;1.43;;;10.20;70.70;;;;;;5104010;28;20238;-74
2021/05/09 06:58:01;;;;;;;3.60;1.87;;;10.20;70.70;;;;;;5099885;28;20181;-74
2021/05/09 07:00:27;;;;;;;2.10;1.83;;;10.30;70.20;;;;;;5104230;28;20194;-73
2021/05/09 07:02:53;;;;;;;1.60;1.50;;;10.40;70.30;;;;;;5100302;28;20715;-75
2021/05/09 07:05:18;;;;;;;1.90;1.80;;;10.50;70.10;;;;;;5101833;28;20209;-75
2021/05/09 07:07:55;;;;;;;1.83;1.73;;;10.50;70.60;;;;;;5101059;28;20281;-73
2021/05/09 07:10:23;;;;;;;1.47;1.40;;;10.60;70.00;;;;;;5099849;28;20206;-74
2021/05/09 07:12:53;;;;;;;1.40;1.30;;;10.70;70.00;;;;;;5101345;28;20202;-75
2021/05/09 07:15:40;;;;;;;1.20;0.70;;;10.80;69.30;;;;;;5101499;28;21032;-73
2021/05/09 07:18:16;;;;;;;0.70;0.70;;;10.90;68.30;;;;;;5099690;28;20177;-71
2021/05/09 07:20:44;;;;;;;0.73;0.73;;;11.00;67.00;;;;;;5096387;28;20181;-71
2021/05/09 07:23:12;;;;;;;1.00;0.90;;;11.10;67.00;;;;;;5101840;28;20703;-71
2021/05/09 07:25:37;;;;;;;0.80;0.80;;;11.30;66.60;;;;;;5100758;28;20209;-71
2021/05/09 07:28:12;;;;;;;1.37;0.77;;;11.40;66.10;;;;;;5102867;28;21208;-72
2021/05/09 07:30:39;;;;;;;1.10;1.10;;;11.40;65.80;;;;;;5100042;28;20225;-72
2021/05/09 07:33:07;;;;;;;2.03;1.30;;;11.50;65.50;;;;;;5100289;28;20185;-71
2021/05/09 07:35:33;;;;;;;1.47;0.70;;;11.60;65.00;;;;;;5100897;28;20200;-71
2021/05/09 07:38:03;;;;;;;1.17;1.17;;;11.70;64.80;;;;;;5098335;28;20243;-71
2021/05/09 07:40:30;;;;;;;2.50;1.10;;;11.80;64.70;;;;;;5101737;28;20186;-71
2021/05/09 07:42:55;;;;;;;1.20;1.03;;;11.90;64.60;;;;;;5099047;28;20174;-75
2021/05/09 07:45:23;;;;;;;1.10;1.10;;;12.00;64.60;;;;;;5100096;28;20244;-75
2021/05/09 07:47:49;;;;;;;1.00;1.00;;;12.10;64.40;;;;;;5095331;28;20648;-76
2021/05/09 07:50:17;;;;;;;1.90;1.37;;;12.10;64.00;;;;;;5100767;28;20226;-75
2021/05/09 07:52:47;;;;;;;1.58;1.48;;;12.20;63.60;;;;;;5102097;28;20204;-75
2021/05/09 07:55:14;;;;;;;1.73;1.65;;;12.30;64.00;;;;;;5098200;28;20620;-75
2021/05/09 07:57:41;;;;;;;0.93;0.93;;;12.40;62.50;;;;;;5098309;28;20248;-75
2021/05/09 08:00:26;;;;;;;1.15;1.10;;;12.50;63.50;;;;;;5100829;28;20178;-74
2021/05/09 08:02:52;;;;;;;1.10;1.08;;;12.60;63.20;;;;;;5101129;28;20174;-74
2021/05/09 08:05:20;;;;;;;1.10;1.10;;;12.60;62.70;;;;;;5101236;28;20999;-74
2021/05/09 08:07:51;;;;;;;0.90;0.90;;;12.70;62.20;;;;;;5101858;28;20189;-73
2021/05/09 08:10:17;;;;;;;0.95;0.95;;;12.80;62.40;;;;;;5101093;28;20197;-74
2021/05/09 08:12:44;;;;;;;0.88;0.88;;;12.80;61.60;;;;;;5099330;28;20230;-74
2021/05/09 08:15:12;;;;;;;0.73;0.73;;;12.80;59.40;;;;;;5101916;28;20177;-75
2021/05/09 08:17:38;;;;;;;0.88;0.85;;;12.80;59.50;;;;;;5101318;28;20213;-75
2021/05/09 08:20:05;;;;;;;0.73;0.73;;;12.90;60.80;;;;;;5098535;28;20212;-75
2021/05/09 08:22:31;;;;;;;0.70;0.70;;;13.00;59.60;;;;;;5096851;28;20209;-74
2021/05/09 08:24:57;;;;;;;2.55;0.77;;;13.10;60.00;;;;;;5101329;28;20678;-75
2021/05/09 08:27:23;;;;;;;1.40;0.73;;;13.20;60.30;;;;;;5102566;28;20301;-75
2021/05/09 08:29:49;;;;;;;0.95;0.95;;;13.30;60.10;;;;;;5099416;28;20189;-75
2021/05/09 08:32:15;;;;;;;1.13;1.13;;;13.40;60.60;;;;;;5099812;28;20235;-74
2021/05/09 08:34:40;;;;;;;2.25;1.10;;;13.50;60.60;;;;;;5091713;28;20242;-74
2021/05/09 08:37:06;;;;;;;0.98;0.80;;;13.60;60.20;;;;;;5094908;28;20539;-73
2021/05/09 08:39:32;;;;;;;0.50;0.50;;;13.70;59.90;;;;;;5099906;28;20181;-74
2021/05/09 08:41:57;;;;;;;1.85;0.60;;;13.80;58.30;;;;;;5097258;28;20174;-74
2021/05/09 08:44:23;;;;;;;0.73;0.73;;;13.90;58.30;;;;;;5099417;28;20747;-74
2021/05/09 08:46:49;;;;;;;0.50;0.50;;;14.10;57.40;;;;;;5097189;28;20181;-74
2021/05/09 08:49:17;;;;;;;1.55;0.70;;;14.30;56.80;;;;;;5101214;28;20216;-74
2021/05/09 08:51:44;;;;;;;0.50;0.50;;;14.40;56.10;;;;;;5099134;28;20666;-74
2021/05/09 08:54:09;;;;;;;0.73;0.73;;;14.50;56.80;;;;;;5079124;28;20242;-74
2021/05/09 08:56:35;;;;;;;0.63;0.63;;;14.60;54.30;;;;;;5082049;28;20181;-73
2021/05/09 08:59:01;;;;;;;1.27;0.73;;;14.70;55.40;;;;;;5101807;28;20626;-71
2021/05/09 09:01:28;;;;;;;0.45;0.45;;;14.90;56.00;;;;;;5101240;28;20194;-75
2021/05/09 09:03:55;;;;;;;0.75;0.60;;;15.00;56.60;;;;;;5098482;28;20188;-74
2021/05/09 09:07:00;;;;;;;0.40;0.40;;;15.20;56.90;;;;;;5098513;28;20181;-74
2021/05/09 09:09:26;;;;;;;0.47;0.47;;;15.40;56.70;;;;;;5024235;28;20192;-73
2021/05/09 09:11:56;;;;;;;1.33;0.60;;;15.60;57.30;;;;;;5034373;28;20196;-75
2021/05/09 09:14:27;;;;;;;0.82;0.77;;;15.80;56.90;;;;;;5026640;28;20296;-74
2021/05/09 09:17:12;;;;;;;4.30;0.77;;;15.90;56.60;;;;;;5034203;28;20204;-73
2021/05/09 09:20:13;;;;;;;2.00;0.70;;;16.10;56.10;;;;;;5031705;28;20221;-73
2021/05/09 09:22:54;;;;;;;0.57;0.57;;;16.20;56.20;;;;;;5035008;28;20225;-72
2021/05/09 09:25:25;;;;;;;0.80;0.80;;;16.40;57.50;;;;;;5033523;28;20300;-72
2021/05/09 09:27:52;;;;;;;0.50;0.50;;;16.60;56.70;;;;;;5033956;28;20254;-74
2021/05/09 09:30:19;;;;;;;0.68;0.68;;;16.90;56.50;;;;;;5030788;28;20196;-74
2021/05/09 09:33:11;;;;;;;1.02;1.02;;;17.10;56.70;;;;;;5027778;28;20215;-74
2021/05/09 09:35:37;;;;;;;0.55;0.55;;;17.40;55.30;;;;;;5033447;28;20196;-73
2021/05/09 09:38:23;;;;;;;1.65;0.73;;;17.70;55.00;;;;;;5032212;28;20198;-75
2021/05/09 09:41:07;;;;;;;0.55;0.55;;;18.10;54.50;;;;;;5084781;28;20228;-74
2021/05/09 09:43:33;;;;;;;2.90;0.45;;;18.60;52.90;;;;;;5101124;28;20260;-73
2021/05/09 09:45:59;;;;;;;0.55;0.55;;;18.90;53.20;;;;;;5103003;28;20749;-73
2021/05/09 09:48:41;;;;;;;0.50;0.50;;;19.30;51.80;;;;;;5101272;28;20181;-73
2021/05/09 09:51:07;;;;;;;3.05;0.60;;;19.80;49.10;;;;;;5097165;28;20175;-72
2021/05/09 09:53:38;;;;;;;0.50;0.50;;;20.10;49.50;;;;;;5099707;28;20182;-72
2021/05/09 09:56:10;;;;;;;5.15;0.30;;;20.50;49.40;;;;;;5098975;28;20178;-73
2021/05/09 09:58:55;;;;;;;1.55;0.30;;;20.90;44.60;;;;;;5104882;28;20606;-72
2021/05/09 10:01:30;;;;;;;0.40;0.40;;;21.30;44.60;;;;;;5101857;28;20651;-73
2021/05/09 10:03:59;;;;;;;0.35;0.35;;;21.90;43.00;;;;;;5096945;28;20185;-74
2021/05/09 10:06:26;;;;;;;0.63;0.63;;;22.50;45.00;;;;;;5101850;28;20208;-72
2021/05/09 10:08:53;;;;;;;0.30;0.30;;;23.20;45.10;;;;;;5100090;28;20179;-73
2021/05/09 10:11:20;;;;;;;0.38;0.38;;;24.10;46.00;;;;;;5104605;28;20541;-73
2021/05/09 10:13:49;;;;;;;0.40;0.40;;;25.00;43.20;;;;;;5100448;28;20197;-74
2021/05/09 10:16:45;;;;;;;0.63;0.52;;;25.70;44.30;;;;;;5104532;28;20211;-74
2021/05/09 10:19:14;;;;;;;0.55;0.30;;;26.30;43.50;;;;;;5112339;27;20194;-73
2021/05/09 10:21:42;;;;;;;0.50;0.45;;;26.80;43.30;;;;;;5099990;28;20173;-73
2021/05/09 10:24:18;;;;;;;0.40;0.40;;;27.30;41.00;;;;;;5102682;28;20189;-73
2021/05/09 10:27:11;;;;;;;0.45;0.45;;;27.90;39.90;;;;;;5101630;28;20192;-73
2021/05/09 10:29:40;;;;;;;0.30;0.30;;;28.50;38.30;;;;;;5100819;28;20221;-73
2021/05/09 10:32:08;;;;;;;0.30;0.30;;;28.60;39.90;;;;;;5099904;28;20572;-73
2021/05/09 10:34:52;;;;;;;0.30;0.30;;;28.90;39.00;;;;;;5098845;28;20194;-73
2021/05/09 10:40:31;;;;;;;0.60;0.60;;;29.80;38.10;;;;;;5094818;28;21021;-74
2021/05/09 10:43:02;;;;;;;0.50;0.50;;;30.10;37.70;;;;;;5098985;28;20265;-74
2021/05/09 10:45:40;;;;;;;0.40;0.40;;;30.30;38.10;;;;;;5101009;28;20599;-72
2021/05/09 10:51:02;;;;;;;0.20;0.20;;;29.90;36.60;;;;;;5105173;28;20196;-72
2021/05/09 10:53:37;;;;;;;1.00;0.30;;;29.60;37.30;;;;;;5104773;28;20178;-74
2021/05/09 10:56:04;;;;;;;0.85;0.32;;;29.40;37.50;;;;;;5099667;28;20181;-73
2021/05/09 10:58:48;;;;;;;1.27;0.45;;;29.70;37.00;;;;;;5103844;28;20234;-73
2021/05/09 11:01:23;;;;;;;0.40;0.40;;;30.30;36.50;;;;;;5082965;28;20213;-73
2021/05/09 11:03:57;;;;;;;0.40;0.40;;;31.00;38.00;;;;;;5100703;28;20268;-73
2021/05/09 11:06:26;;;;;;;0.28;0.28;;;31.10;37.10;;;;;;5101692;28;20177;-73
2021/05/09 11:09:17;;;;;;;0.25;0.25;;;31.30;37.50;;;;;;5098739;28;20203;-73
2021/05/09 11:11:45;;;;;;;0.30;0.30;;;31.60;36.40;;;;;;5101732;28;20200;-73
2021/05/09 11:14:11;;;;;;;0.38;0.38;;;31.40;36.80;;;;;;5102320;28;20346;-74
2021/05/09 11:16:44;;;;;;;0.30;0.30;;;31.10;38.80;;;;;;5103445;28;20306;-74
2021/05/09 11:19:14;;;;;;;0.20;0.20;;;31.30;37.50;;;;;;5100633;28;20177;-74
2021/05/09 11:21:49;;;;;;;0.57;0.30;;;31.60;37.10;;;;;;5104167;28;20192;-73
2021/05/09 11:24:33;;;;;;;1.85;0.30;;;31.90;36.80;;;;;;5104030;28;20748;-74
2021/05/09 11:27:13;;;;;;;0.25;0.25;;;32.20;35.70;;;;;;5103691;28;20228;-73
2021/05/09 11:29:48;;;;;;;0.30;0.30;;;32.20;35.00;;;;;;5099954;28;20181;-74
2021/05/09 11:32:16;;;;;;;0.25;0.25;;;32.10;35.90;;;;;;5084132;28;20188;-74
2021/05/09 11:35:02;;;;;;;0.20;0.20;;;32.00;38.20;;;;;;5101518;28;20178;-73
2021/05/09 11:37:47;;;;;;;1.20;0.30;;;32.10;36.60;;;;;;5084497;28;20186;-72
2021/05/09 11:40:14;;;;;;;0.32;0.32;;;32.60;35.20;;;;;;5098157;28;20185;-73
2021/05/09 11:42:40;;;;;;;0.30;0.30;;;33.20;36.30;;;;;;5102080;28;20614;-74
2021/05/09 11:45:07;;;;;;;0.45;0.30;;;33.50;36.70;;;;;;5100853;28;20216;-72
2021/05/09 11:47:34;;;;;;;0.55;0.30;;;33.60;36.30;;;;;;5104024;28;20207;-72
2021/05/09 11:50:09;;;;;;;2.83;0.40;;;34.00;35.10;;;;;;5101425;28;20181;-73
2021/05/09 11:52:37;;;;;;;0.40;0.40;;;34.00;34.00;;;;;;5103710;28;20180;-71
2021/05/09 11:55:06;;;;;;;0.40;0.40;;;34.10;34.80;;;;;;5096708;28;20181;-74
2021/05/09 11:57:34;;;;;;;0.20;0.20;;;33.60;34.40;;;;;;5100627;28;20340;-72
2021/05/09 12:00:25;;;;;;;0.30;0.30;;;33.30;36.00;;;;;;5097872;28;20173;-74
2021/05/09 12:02:51;;;;;;;0.20;0.20;;;33.30;34.80;;;;;;5095076;28;20205;-75
2021/05/09 12:05:19;;;;;;;2.83;0.32;;;33.20;37.40;;;;;;5101227;28;20885;-74
2021/05/09 12:07:49;;;;;;;0.40;0.40;;;33.40;36.20;;;;;;5101569;28;20185;-76
2021/05/09 12:10:24;;;;;;;1.17;0.20;;;33.80;37.30;;;;;;5103402;28;20180;-75
2021/05/09 12:12:58;;;;;;;1.20;0.30;;;33.70;34.60;;;;;;5097505;28;20177;-74
2021/05/09 12:15:29;;;;;;;1.17;0.20;;;33.70;36.40;;;;;;5099679;28;20190;-75
2021/05/09 12:17:57;;;;;;;0.30;0.30;;;34.00;36.60;;;;;;5101935;28;20169;-75
2021/05/09 12:20:36;;;;;;;0.20;0.20;;;34.20;35.10;;;;;;5098561;28;20298;-74
2021/05/09 12:23:22;;;;;;;0.30;0.30;;;34.20;35.80;;;;;;5099938;28;20193;-75
2021/05/09 12:25:51;;;;;;;0.30;0.30;;;34.10;33.90;;;;;;5101254;28;20199;-73
2021/05/09 12:28:31;;;;;;;2.63;0.32;;;34.20;36.70;;;;;;5100223;28;20188;-75
2021/05/09 12:31:11;;;;;;;0.40;0.40;;;34.40;34.80;;;;;;5097920;28;20181;-75
2021/05/09 12:33:37;;;;;;;1.48;0.50;;;34.90;34.30;;;;;;5099499;28;20178;-74
2021/05/09 12:36:17;;;;;;;0.50;0.50;;;35.20;33.70;;;;;;5102504;28;20205;-73
2021/05/09 12:38:43;;;;;;;1.08;0.30;;;35.50;34.60;;;;;;5099675;28;20176;-74
2021/05/09 12:41:12;;;;;;;0.60;0.38;;;35.60;36.20;;;;;;5100332;28;20676;-74
2021/05/09 12:43:40;;;;;;;0.30;0.30;;;35.70;34.30;;;;;;5101788;28;20173;-75
2021/05/09 12:46:06;;;;;;;1.85;0.30;;;35.50;33.70;;;;;;5097741;28;20187;-73
2021/05/09 12:48:32;;;;;;;8.23;0.35;;;33.90;35.20;;;;;;5102586;28;20173;-73
2021/05/09 12:51:14;;;;;;;0.40;0.40;;;33.70;36.50;;;;;;5097619;28;20740;-75
2021/05/09 12:53:51;;;;;;;0.40;0.40;;;33.70;35.30;;;;;;5102382;28;20185;-73
2021/05/09 12:56:27;;;;;;;0.30;0.30;;;34.00;35.70;;;;;;5102324;28;20261;-73
2021/05/09 12:59:15;;;;;;;0.30;0.30;;;34.20;34.80;;;;;;5107582;28;20192;-73
2021/05/09 13:01:58;;;;;;;0.35;0.35;;;34.20;34.70;;;;;;5107323;28;20195;-74
2021/05/09 13:04:37;;;;;;;0.47;0.30;;;33.60;35.90;;;;;;5103954;28;20657;-73
2021/05/09 13:07:04;;;;;;;1.23;0.28;;;33.30;35.10;;;;;;5103222;28;20269;-73
2021/05/09 13:09:32;;;;;;;0.35;0.35;;;33.30;36.20;;;;;;5106251;28;20707;-73